sensor_id;sensor_type;location;lat;lon;timestamp;temperature;humidity
21849;DHT22;11089;49.852;19.700;2024-02-26T00:00:48;7.20;1.00
21849;DHT22;11089;49.852;19.700;2024-02-26T00:03:49;7.20;1.00
21849;DHT22;11089;49.852;19.700;2024-02-26T00:06:50;7.10;1.00
21849;DHT22;11089;49.852;19.700;2024-02-26T00:09:52;7.00;85.50
21849;DHT22;11089;49.852;19.700;2024-02-26T00:12:53;6.90;97.00
21849;DHT22;11089;49.852;19.700;2024-02-26T00:15:53;7.00;38.80
21849;DHT22;11089;49.852;19.700;2024-02-26T00:18:54;7.00;21.40
21849;DHT22;11089;49.852;19.700;2024-02-26T00:21:55;7.00;23.50
21849;DHT22;11089;49.852;19.700;2024-02-26T00:24:56;6.90;29.30
21849;DHT22;11089;49.852;19.700;2024-02-26T00:27:57;6.90;14.90
21849;DHT22;11089;49.852;19.700;2024-02-26T00:30:58;6.90;16.10
21849;DHT22;11089;49.852;19.700;2024-02-26T00:33:59;6.90;36.20
21849;DHT22;11089;49.852;19.700;2024-02-26T00:37:00;6.80;50.00
21849;DHT22;11089;49.852;19.700;2024-02-26T00:40:01;6.70;73.00
21849;DHT22;11089;49.852;19.700;2024-02-26T00:43:02;6.70;99.90
21849;DHT22;11089;49.852;19.700;2024-02-26T00:46:03;6.70;99.90
21849;DHT22;11089;49.852;19.700;2024-02-26T00:49:04;6.70;39.40
21849;DHT22;11089;49.852;19.700;2024-02-26T00:52:05;6.60;99.90
21849;DHT22;11089;49.852;19.700;2024-02-26T00:55:06;6.60;99.90
21849;DHT22;11089;49.852;19.700;2024-02-26T00:58:08;6.50;90.60
21849;DHT22;11089;49.852;19.700;2024-02-26T01:01:10;6.50;99.90
21849;DHT22;11089;49.852;19.700;2024-02-26T01:04:10;6.40;99.90
21849;DHT22;11089;49.852;19.700;2024-02-26T01:07:12;6.30;99.90
21849;DHT22;11089;49.852;19.700;2024-02-26T01:10:13;6.20;99.90
21849;DHT22;11089;49.852;19.700;2024-02-26T01:13:14;6.30;99.90
21849;DHT22;11089;49.852;19.700;2024-02-26T01:16:15;6.20;99.90
21849;DHT22;11089;49.852;19.700;2024-02-26T01:19:16;6.20;99.90
21849;DHT22;11089;49.852;19.700;2024-02-26T01:22:18;6.20;99.90
21849;DHT22;11089;49.852;19.700;2024-02-26T01:25:19;6.10;99.90
21849;DHT22;11089;49.852;19.700;2024-02-26T01:28:19;6.00;99.90
21849;DHT22;11089;49.852;19.700;2024-02-26T01:31:20;6.10;1.00
21849;DHT22;11089;49.852;19.700;2024-02-26T01:34:21;6.20;1.00
21849;DHT22;11089;49.852;19.700;2024-02-26T01:37:22;6.20;1.00
21849;DHT22;11089;49.852;19.700;2024-02-26T01:40:26;6.10;1.00
21849;DHT22;11089;49.852;19.700;2024-02-26T01:43:27;6.00;1.00
21849;DHT22;11089;49.852;19.700;2024-02-26T01:46:29;6.00;1.00
21849;DHT22;11089;49.852;19.700;2024-02-26T01:49:30;6.10;1.00
21849;DHT22;11089;49.852;19.700;2024-02-26T01:52:31;6.00;1.00
21849;DHT22;11089;49.852;19.700;2024-02-26T01:55:33;5.90;1.00
21849;DHT22;11089;49.852;19.700;2024-02-26T01:58:35;5.80;1.00
21849;DHT22;11089;49.852;19.700;2024-02-26T02:01:36;5.60;1.00
21849;DHT22;11089;49.852;19.700;2024-02-26T02:04:39;5.50;1.00
21849;DHT22;11089;49.852;19.700;2024-02-26T02:07:41;5.40;1.00
21849;DHT22;11089;49.852;19.700;2024-02-26T02:10:42;5.30;1.00
21849;DHT22;11089;49.852;19.700;2024-02-26T02:13:43;5.40;1.00
21849;DHT22;11089;49.852;19.700;2024-02-26T02:16:44;5.40;1.00
21849;DHT22;11089;49.852;19.700;2024-02-26T02:19:45;5.50;1.00
21849;DHT22;11089;49.852;19.700;2024-02-26T02:22:46;5.50;1.00
21849;DHT22;11089;49.852;19.700;2024-02-26T02:25:47;5.50;1.00
21849;DHT22;11089;49.852;19.700;2024-02-26T02:28:48;5.50;1.00
21849;DHT22;11089;49.852;19.700;2024-02-26T02:31:50;5.60;1.00
21849;DHT22;11089;49.852;19.700;2024-02-26T02:34:51;5.50;1.00
21849;DHT22;11089;49.852;19.700;2024-02-26T02:37:52;5.50;1.00
21849;DHT22;11089;49.852;19.700;2024-02-26T02:40:53;5.50;1.00
21849;DHT22;11089;49.852;19.700;2024-02-26T02:43:54;5.50;1.00
21849;DHT22;11089;49.852;19.700;2024-02-26T02:46:55;5.50;1.00
21849;DHT22;11089;49.852;19.700;2024-02-26T02:49:55;5.50;1.00
21849;DHT22;11089;49.852;19.700;2024-02-26T02:52:56;5.50;99.90
21849;DHT22;11089;49.852;19.700;2024-02-26T02:55:57;5.50;99.90
21849;DHT22;11089;49.852;19.700;2024-02-26T02:58:57;5.60;1.00
21849;DHT22;11089;49.852;19.700;2024-02-26T03:01:58;5.50;99.90
21849;DHT22;11089;49.852;19.700;2024-02-26T03:04:59;5.40;99.90
21849;DHT22;11089;49.852;19.700;2024-02-26T03:08:00;5.40;99.90
21849;DHT22;11089;49.852;19.700;2024-02-26T03:11:01;5.40;1.00
21849;DHT22;11089;49.852;19.700;2024-02-26T03:14:02;5.40;1.00
21849;DHT22;11089;49.852;19.700;2024-02-26T03:17:02;5.70;99.90
21849;DHT22;11089;49.852;19.700;2024-02-26T03:20:04;6.10;1.00
21849;DHT22;11089;49.852;19.700;2024-02-26T03:23:05;6.30;99.90
21849;DHT22;11089;49.852;19.700;2024-02-26T03:26:06;6.30;1.00
21849;DHT22;11089;49.852;19.700;2024-02-26T03:29:07;6.30;99.90
21849;DHT22;11089;49.852;19.700;2024-02-26T03:32:08;6.10;1.00
21849;DHT22;11089;49.852;19.700;2024-02-26T03:35:09;6.00;99.90
21849;DHT22;11089;49.852;19.700;2024-02-26T03:38:10;5.70;99.90
21849;DHT22;11089;49.852;19.700;2024-02-26T03:41:10;5.70;1.00
21849;DHT22;11089;49.852;19.700;2024-02-26T03:44:11;6.40;99.90
21849;DHT22;11089;49.852;19.700;2024-02-26T03:47:12;6.80;1.00
21849;DHT22;11089;49.852;19.700;2024-02-26T03:50:13;6.80;1.00
21849;DHT22;11089;49.852;19.700;2024-02-26T03:53:14;6.90;1.00
21849;DHT22;11089;49.852;19.700;2024-02-26T03:56:15;6.80;1.00
21849;DHT22;11089;49.852;19.700;2024-02-26T03:59:16;6.70;1.00
21849;DHT22;11089;49.852;19.700;2024-02-26T04:02:17;6.80;1.00
21849;DHT22;11089;49.852;19.700;2024-02-26T04:05:20;6.70;1.00
21849;DHT22;11089;49.852;19.700;2024-02-26T04:08:21;6.60;1.00
21849;DHT22;11089;49.852;19.700;2024-02-26T04:11:21;6.50;1.00
21849;DHT22;11089;49.852;19.700;2024-02-26T04:14:22;6.40;1.00
21849;DHT22;11089;49.852;19.700;2024-02-26T04:17:23;6.30;1.00
21849;DHT22;11089;49.852;19.700;2024-02-26T04:20:24;6.20;1.00
21849;DHT22;11089;49.852;19.700;2024-02-26T04:23:25;6.20;1.00
21849;DHT22;11089;49.852;19.700;2024-02-26T04:26:26;6.20;1.00
21849;DHT22;11089;49.852;19.700;2024-02-26T04:29:27;6.10;1.00
21849;DHT22;11089;49.852;19.700;2024-02-26T04:32:28;6.00;1.00
21849;DHT22;11089;49.852;19.700;2024-02-26T04:35:29;5.90;1.00
21849;DHT22;11089;49.852;19.700;2024-02-26T04:38:31;5.90;1.00
21849;DHT22;11089;49.852;19.700;2024-02-26T04:41:32;5.90;1.00
21849;DHT22;11089;49.852;19.700;2024-02-26T04:44:32;5.90;1.00
21849;DHT22;11089;49.852;19.700;2024-02-26T04:47:33;5.80;1.00
21849;DHT22;11089;49.852;19.700;2024-02-26T04:50:34;5.60;1.00
21849;DHT22;11089;49.852;19.700;2024-02-26T04:53:35;5.50;1.00
21849;DHT22;11089;49.852;19.700;2024-02-26T04:56:36;5.30;99.90
21849;DHT22;11089;49.852;19.700;2024-02-26T04:59:37;5.30;99.90
21849;DHT22;11089;49.852;19.700;2024-02-26T05:02:38;5.40;99.90
21849;DHT22;11089;49.852;19.700;2024-02-26T05:05:40;5.30;99.90
21849;DHT22;11089;49.852;19.700;2024-02-26T05:08:41;5.30;99.90
21849;DHT22;11089;49.852;19.700;2024-02-26T05:11:42;5.30;1.00
21849;DHT22;11089;49.852;19.700;2024-02-26T05:14:42;5.30;1.00
21849;DHT22;11089;49.852;19.700;2024-02-26T05:17:44;5.30;1.00
21849;DHT22;11089;49.852;19.700;2024-02-26T05:20:45;5.30;1.00
21849;DHT22;11089;49.852;19.700;2024-02-26T05:23:46;5.30;1.00
21849;DHT22;11089;49.852;19.700;2024-02-26T05:26:47;5.40;99.90
21849;DHT22;11089;49.852;19.700;2024-02-26T05:29:48;5.40;1.00
21849;DHT22;11089;49.852;19.700;2024-02-26T05:32:48;5.40;99.90
21849;DHT22;11089;49.852;19.700;2024-02-26T05:35:49;5.30;99.90
21849;DHT22;11089;49.852;19.700;2024-02-26T05:38:50;5.40;1.00
21849;DHT22;11089;49.852;19.700;2024-02-26T05:41:51;5.40;1.00
21849;DHT22;11089;49.852;19.700;2024-02-26T05:44:52;5.40;1.00
21849;DHT22;11089;49.852;19.700;2024-02-26T05:47:53;5.40;1.00
21849;DHT22;11089;49.852;19.700;2024-02-26T05:50:54;5.40;99.90
21849;DHT22;11089;49.852;19.700;2024-02-26T05:53:55;5.60;1.00
21849;DHT22;11089;49.852;19.700;2024-02-26T05:56:56;5.90;56.90
21849;DHT22;11089;49.852;19.700;2024-02-26T05:59:56;6.10;1.00
21849;DHT22;11089;49.852;19.700;2024-02-26T06:02:57;6.20;1.00
21849;DHT22;11089;49.852;19.700;2024-02-26T06:05:58;6.10;1.00
21849;DHT22;11089;49.852;19.700;2024-02-26T06:08:59;6.30;1.00
21849;DHT22;11089;49.852;19.700;2024-02-26T06:12:00;6.90;99.90
21849;DHT22;11089;49.852;19.700;2024-02-26T06:15:01;7.20;1.00
21849;DHT22;11089;49.852;19.700;2024-02-26T06:18:02;7.20;1.00
21849;DHT22;11089;49.852;19.700;2024-02-26T06:21:03;7.20;1.00
21849;DHT22;11089;49.852;19.700;2024-02-26T06:24:04;7.10;1.00
21849;DHT22;11089;49.852;19.700;2024-02-26T06:27:05;7.10;1.00
21849;DHT22;11089;49.852;19.700;2024-02-26T06:30:07;7.00;99.90
21849;DHT22;11089;49.852;19.700;2024-02-26T06:33:09;7.30;1.00
21849;DHT22;11089;49.852;19.700;2024-02-26T06:36:11;7.60;99.90
21849;DHT22;11089;49.852;19.700;2024-02-26T06:39:12;7.60;1.00
21849;DHT22;11089;49.852;19.700;2024-02-26T06:42:13;7.70;99.90
21849;DHT22;11089;49.852;19.700;2024-02-26T06:45:14;7.70;99.90
21849;DHT22;11089;49.852;19.700;2024-02-26T06:48:14;7.60;1.00
21849;DHT22;11089;49.852;19.700;2024-02-26T06:51:15;7.50;1.00
21849;DHT22;11089;49.852;19.700;2024-02-26T06:54:16;7.40;1.00
21849;DHT22;11089;49.852;19.700;2024-02-26T06:57:17;7.40;1.00
21849;DHT22;11089;49.852;19.700;2024-02-26T07:00:18;7.30;1.00
21849;DHT22;11089;49.852;19.700;2024-02-26T07:03:19;7.10;1.00
21849;DHT22;11089;49.852;19.700;2024-02-26T07:06:20;7.10;1.00
21849;DHT22;11089;49.852;19.700;2024-02-26T07:09:21;7.10;1.00
21849;DHT22;11089;49.852;19.700;2024-02-26T07:12:22;7.10;1.00
21849;DHT22;11089;49.852;19.700;2024-02-26T07:15:22;7.30;1.00
21849;DHT22;11089;49.852;19.700;2024-02-26T07:18:23;7.50;1.00
21849;DHT22;11089;49.852;19.700;2024-02-26T07:21:24;7.40;1.00
21849;DHT22;11089;49.852;19.700;2024-02-26T07:24:25;7.40;1.00
21849;DHT22;11089;49.852;19.700;2024-02-26T07:27:26;7.50;1.00
21849;DHT22;11089;49.852;19.700;2024-02-26T07:30:27;7.60;1.00
21849;DHT22;11089;49.852;19.700;2024-02-26T07:33:28;7.70;1.00
21849;DHT22;11089;49.852;19.700;2024-02-26T07:36:29;7.70;1.00
21849;DHT22;11089;49.852;19.700;2024-02-26T07:39:29;7.50;1.00
21849;DHT22;11089;49.852;19.700;2024-02-26T07:42:30;7.50;1.00
21849;DHT22;11089;49.852;19.700;2024-02-26T07:45:31;7.30;1.00
21849;DHT22;11089;49.852;19.700;2024-02-26T07:48:32;7.30;1.00
21849;DHT22;11089;49.852;19.700;2024-02-26T07:51:34;7.30;1.00
21849;DHT22;11089;49.852;19.700;2024-02-26T07:54:35;7.20;1.00
21849;DHT22;11089;49.852;19.700;2024-02-26T07:57:36;7.20;1.00
21849;DHT22;11089;49.852;19.700;2024-02-26T08:00:37;7.20;1.00
21849;DHT22;11089;49.852;19.700;2024-02-26T08:03:38;7.10;1.00
21849;DHT22;11089;49.852;19.700;2024-02-26T08:06:39;7.20;1.00
21849;DHT22;11089;49.852;19.700;2024-02-26T08:09:40;7.30;1.00
21849;DHT22;11089;49.852;19.700;2024-02-26T08:12:41;7.40;1.00
21849;DHT22;11089;49.852;19.700;2024-02-26T08:15:42;7.30;1.00
21849;DHT22;11089;49.852;19.700;2024-02-26T08:18:43;7.40;1.00
21849;DHT22;11089;49.852;19.700;2024-02-26T08:21:43;7.50;1.00
21849;DHT22;11089;49.852;19.700;2024-02-26T08:24:44;7.50;1.00
21849;DHT22;11089;49.852;19.700;2024-02-26T08:27:45;7.50;1.00
21849;DHT22;11089;49.852;19.700;2024-02-26T08:30:47;7.60;1.00
21849;DHT22;11089;49.852;19.700;2024-02-26T08:33:48;7.60;1.00
21849;DHT22;11089;49.852;19.700;2024-02-26T08:36:49;7.60;1.00
21849;DHT22;11089;49.852;19.700;2024-02-26T08:39:51;7.60;1.00
21849;DHT22;11089;49.852;19.700;2024-02-26T08:42:52;7.70;1.00
21849;DHT22;11089;49.852;19.700;2024-02-26T08:45:53;7.90;1.00
21849;DHT22;11089;49.852;19.700;2024-02-26T08:48:53;8.20;1.00
21849;DHT22;11089;49.852;19.700;2024-02-26T08:51:54;8.40;1.00
21849;DHT22;11089;49.852;19.700;2024-02-26T08:54:56;8.80;99.90
21849;DHT22;11089;49.852;19.700;2024-02-26T08:57:57;10.70;1.00
21849;DHT22;11089;49.852;19.700;2024-02-26T09:00:58;11.50;1.00
21849;DHT22;11089;49.852;19.700;2024-02-26T09:03:59;13.00;1.00
21849;DHT22;11089;49.852;19.700;2024-02-26T09:07:00;13.50;1.00
21849;DHT22;11089;49.852;19.700;2024-02-26T09:10:00;12.30;1.00
21849;DHT22;11089;49.852;19.700;2024-02-26T09:13:01;11.50;1.00
21849;DHT22;11089;49.852;19.700;2024-02-26T09:16:03;10.80;1.00
21849;DHT22;11089;49.852;19.700;2024-02-26T09:19:03;10.60;1.00
21849;DHT22;11089;49.852;19.700;2024-02-26T09:22:04;10.60;1.00
21849;DHT22;11089;49.852;19.700;2024-02-26T09:25:05;10.50;1.00
21849;DHT22;11089;49.852;19.700;2024-02-26T09:28:07;10.40;1.00
21849;DHT22;11089;49.852;19.700;2024-02-26T09:31:07;10.50;1.00
21849;DHT22;11089;49.852;19.700;2024-02-26T09:34:08;10.70;1.00
21849;DHT22;11089;49.852;19.700;2024-02-26T09:37:09;11.20;1.00
21849;DHT22;11089;49.852;19.700;2024-02-26T09:40:11;11.70;1.00
21849;DHT22;11089;49.852;19.700;2024-02-26T09:43:14;11.90;1.00
21849;DHT22;11089;49.852;19.700;2024-02-26T09:46:17;11.70;1.00
21849;DHT22;11089;49.852;19.700;2024-02-26T09:49:21;11.60;1.00
21849;DHT22;11089;49.852;19.700;2024-02-26T09:52:25;11.40;1.00
21849;DHT22;11089;49.852;19.700;2024-02-26T09:55:26;11.30;1.00
21849;DHT22;11089;49.852;19.700;2024-02-26T09:58:28;11.20;1.00
21849;DHT22;11089;49.852;19.700;2024-02-26T10:01:29;11.10;1.00
21849;DHT22;11089;49.852;19.700;2024-02-26T10:04:34;11.00;1.00
21849;DHT22;11089;49.852;19.700;2024-02-26T10:07:35;11.00;1.00
21849;DHT22;11089;49.852;19.700;2024-02-26T10:10:37;10.80;1.00
21849;DHT22;11089;49.852;19.700;2024-02-26T10:13:39;10.90;1.00
21849;DHT22;11089;49.852;19.700;2024-02-26T10:16:40;11.00;1.00
21849;DHT22;11089;49.852;19.700;2024-02-26T10:19:42;11.00;1.00
21849;DHT22;11089;49.852;19.700;2024-02-26T10:22:46;10.90;1.00
21849;DHT22;11089;49.852;19.700;2024-02-26T10:25:54;11.00;1.00
21849;DHT22;11089;49.852;19.700;2024-02-26T10:28:59;11.20;1.00
21849;DHT22;11089;49.852;19.700;2024-02-26T10:32:01;12.00;1.00
21849;DHT22;11089;49.852;19.700;2024-02-26T10:35:04;12.60;1.00
21849;DHT22;11089;49.852;19.700;2024-02-26T10:38:08;13.40;1.00
21849;DHT22;11089;49.852;19.700;2024-02-26T10:41:13;13.50;1.00
21849;DHT22;11089;49.852;19.700;2024-02-26T10:44:15;13.10;1.00
21849;DHT22;11089;49.852;19.700;2024-02-26T10:47:16;12.90;1.00
21849;DHT22;11089;49.852;19.700;2024-02-26T10:50:17;12.80;1.00
21849;DHT22;11089;49.852;19.700;2024-02-26T10:53:22;12.80;1.00
21849;DHT22;11089;49.852;19.700;2024-02-26T10:56:27;12.90;1.00
21849;DHT22;11089;49.852;19.700;2024-02-26T10:59:29;13.00;1.00
21849;DHT22;11089;49.852;19.700;2024-02-26T11:02:33;13.10;1.00
21849;DHT22;11089;49.852;19.700;2024-02-26T11:05:38;13.30;1.00
21849;DHT22;11089;49.852;19.700;2024-02-26T11:08:39;13.20;1.00
21849;DHT22;11089;49.852;19.700;2024-02-26T11:11:41;13.10;1.00
21849;DHT22;11089;49.852;19.700;2024-02-26T11:14:45;13.30;1.00
21849;DHT22;11089;49.852;19.700;2024-02-26T11:17:48;13.50;1.00
21849;DHT22;11089;49.852;19.700;2024-02-26T11:20:49;13.60;1.00
21849;DHT22;11089;49.852;19.700;2024-02-26T11:23:51;13.80;1.00
21849;DHT22;11089;49.852;19.700;2024-02-26T11:26:55;14.00;1.00
21849;DHT22;11089;49.852;19.700;2024-02-26T11:30:00;14.00;1.00
21849;DHT22;11089;49.852;19.700;2024-02-26T11:33:02;14.10;1.00
21849;DHT22;11089;49.852;19.700;2024-02-26T11:36:12;14.30;1.00
21849;DHT22;11089;49.852;19.700;2024-02-26T11:39:14;14.30;1.00
21849;DHT22;11089;49.852;19.700;2024-02-26T11:42:17;14.40;1.00
21849;DHT22;11089;49.852;19.700;2024-02-26T11:48:39;14.40;1.00
21849;DHT22;11089;49.852;19.700;2024-02-26T11:51:42;14.40;1.00
21849;DHT22;11089;49.852;19.700;2024-02-26T11:54:46;14.40;1.00
21849;DHT22;11089;49.852;19.700;2024-02-26T11:57:48;14.30;1.00
21849;DHT22;11089;49.852;19.700;2024-02-26T12:00:49;14.30;1.00
21849;DHT22;11089;49.852;19.700;2024-02-26T12:03:49;14.30;1.00
21849;DHT22;11089;49.852;19.700;2024-02-26T12:07:02;14.30;1.00
21849;DHT22;11089;49.852;19.700;2024-02-26T12:13:29;14.50;1.00
21849;DHT22;11089;49.852;19.700;2024-02-26T12:16:38;14.80;1.00
21849;DHT22;11089;49.852;19.700;2024-02-26T12:19:39;14.80;1.00
21849;DHT22;11089;49.852;19.700;2024-02-26T12:22:40;14.60;1.00
21849;DHT22;11089;49.852;19.700;2024-02-26T12:25:41;14.50;1.00
21849;DHT22;11089;49.852;19.700;2024-02-26T12:28:46;14.40;1.00
21849;DHT22;11089;49.852;19.700;2024-02-26T12:31:47;14.40;1.00
21849;DHT22;11089;49.852;19.700;2024-02-26T12:34:48;14.20;1.00
21849;DHT22;11089;49.852;19.700;2024-02-26T12:37:50;14.20;1.00
21849;DHT22;11089;49.852;19.700;2024-02-26T12:40:52;14.40;1.00
21849;DHT22;11089;49.852;19.700;2024-02-26T12:43:53;14.30;1.00
21849;DHT22;11089;49.852;19.700;2024-02-26T12:47:01;14.30;1.00
21849;DHT22;11089;49.852;19.700;2024-02-26T12:50:05;14.20;1.00
21849;DHT22;11089;49.852;19.700;2024-02-26T12:53:06;14.20;1.00
21849;DHT22;11089;49.852;19.700;2024-02-26T12:56:09;14.10;1.00
21849;DHT22;11089;49.852;19.700;2024-02-26T12:59:10;14.10;1.00
21849;DHT22;11089;49.852;19.700;2024-02-26T13:02:11;14.00;1.00
21849;DHT22;11089;49.852;19.700;2024-02-26T13:05:13;14.00;1.00
21849;DHT22;11089;49.852;19.700;2024-02-26T13:08:22;14.00;1.00
21849;DHT22;11089;49.852;19.700;2024-02-26T13:11:23;13.90;1.00
21849;DHT22;11089;49.852;19.700;2024-02-26T13:14:24;13.90;1.00
21849;DHT22;11089;49.852;19.700;2024-02-26T13:17:25;13.70;1.00
21849;DHT22;11089;49.852;19.700;2024-02-26T13:20:29;13.70;1.00
21849;DHT22;11089;49.852;19.700;2024-02-26T13:23:30;13.70;1.00
21849;DHT22;11089;49.852;19.700;2024-02-26T13:26:31;13.70;1.00
21849;DHT22;11089;49.852;19.700;2024-02-26T13:29:32;13.80;1.00
21849;DHT22;11089;49.852;19.700;2024-02-26T13:32:38;13.90;1.00
21849;DHT22;11089;49.852;19.700;2024-02-26T13:35:40;14.00;1.00
21849;DHT22;11089;49.852;19.700;2024-02-26T13:38:54;14.00;1.00
21849;DHT22;11089;49.852;19.700;2024-02-26T13:41:56;14.10;1.00
21849;DHT22;11089;49.852;19.700;2024-02-26T13:44:57;14.20;1.00
21849;DHT22;11089;49.852;19.700;2024-02-26T13:48:02;14.00;1.00
21849;DHT22;11089;49.852;19.700;2024-02-26T13:51:04;14.00;1.00
21849;DHT22;11089;49.852;19.700;2024-02-26T13:54:05;14.10;1.00
21849;DHT22;11089;49.852;19.700;2024-02-26T13:57:06;14.20;1.00
21849;DHT22;11089;49.852;19.700;2024-02-26T14:00:09;14.30;1.00
21849;DHT22;11089;49.852;19.700;2024-02-26T14:03:10;14.30;1.00
21849;DHT22;11089;49.852;19.700;2024-02-26T14:06:11;14.30;1.00
21849;DHT22;11089;49.852;19.700;2024-02-26T14:09:12;14.40;1.00
21849;DHT22;11089;49.852;19.700;2024-02-26T14:12:19;14.50;1.00
21849;DHT22;11089;49.852;19.700;2024-02-26T14:15:19;14.50;1.00
21849;DHT22;11089;49.852;19.700;2024-02-26T14:18:20;14.50;1.00
21849;DHT22;11089;49.852;19.700;2024-02-26T14:21:21;14.50;1.00
21849;DHT22;11089;49.852;19.700;2024-02-26T14:24:22;14.50;1.00
21849;DHT22;11089;49.852;19.700;2024-02-26T14:27:23;14.50;1.00
21849;DHT22;11089;49.852;19.700;2024-02-26T14:30:25;14.40;1.00
21849;DHT22;11089;49.852;19.700;2024-02-26T14:33:26;14.40;1.00
21849;DHT22;11089;49.852;19.700;2024-02-26T14:36:27;14.30;1.00
21849;DHT22;11089;49.852;19.700;2024-02-26T14:39:31;14.20;1.00
21849;DHT22;11089;49.852;19.700;2024-02-26T14:42:32;14.20;1.00
21849;DHT22;11089;49.852;19.700;2024-02-26T14:45:33;14.10;1.00
21849;DHT22;11089;49.852;19.700;2024-02-26T14:48:34;14.00;1.00
21849;DHT22;11089;49.852;19.700;2024-02-26T14:51:35;14.00;1.00
21849;DHT22;11089;49.852;19.700;2024-02-26T14:54:36;13.90;1.00
21849;DHT22;11089;49.852;19.700;2024-02-26T14:57:39;13.90;1.00
21849;DHT22;11089;49.852;19.700;2024-02-26T15:00:40;13.90;1.00
21849;DHT22;11089;49.852;19.700;2024-02-26T15:03:40;13.80;1.00
21849;DHT22;11089;49.852;19.700;2024-02-26T15:06:41;13.80;1.00
21849;DHT22;11089;49.852;19.700;2024-02-26T15:09:42;13.70;1.00
21849;DHT22;11089;49.852;19.700;2024-02-26T15:12:43;13.50;1.00
21849;DHT22;11089;49.852;19.700;2024-02-26T15:15:44;13.50;1.00
21849;DHT22;11089;49.852;19.700;2024-02-26T15:18:45;13.40;1.00
21849;DHT22;11089;49.852;19.700;2024-02-26T15:21:46;13.40;1.00
21849;DHT22;11089;49.852;19.700;2024-02-26T15:24:47;13.30;1.00
21849;DHT22;11089;49.852;19.700;2024-02-26T15:27:48;13.30;1.00
21849;DHT22;11089;49.852;19.700;2024-02-26T15:30:48;13.30;1.00
21849;DHT22;11089;49.852;19.700;2024-02-26T15:33:49;13.30;1.00
21849;DHT22;11089;49.852;19.700;2024-02-26T15:36:50;13.20;1.00
21849;DHT22;11089;49.852;19.700;2024-02-26T15:39:51;13.20;1.00
21849;DHT22;11089;49.852;19.700;2024-02-26T15:42:52;13.20;1.00
21849;DHT22;11089;49.852;19.700;2024-02-26T15:45:53;13.10;1.00
21849;DHT22;11089;49.852;19.700;2024-02-26T15:48:54;13.00;1.00
21849;DHT22;11089;49.852;19.700;2024-02-26T15:51:55;12.90;1.00
21849;DHT22;11089;49.852;19.700;2024-02-26T15:54:55;12.90;1.00
21849;DHT22;11089;49.852;19.700;2024-02-26T15:57:56;12.90;1.00
21849;DHT22;11089;49.852;19.700;2024-02-26T16:00:57;12.90;1.00
21849;DHT22;11089;49.852;19.700;2024-02-26T16:03:58;12.80;1.00
21849;DHT22;11089;49.852;19.700;2024-02-26T16:07:02;12.70;1.00
21849;DHT22;11089;49.852;19.700;2024-02-26T16:10:07;12.60;1.00
21849;DHT22;11089;49.852;19.700;2024-02-26T16:13:08;12.60;1.00
21849;DHT22;11089;49.852;19.700;2024-02-26T16:16:17;12.50;1.00
21849;DHT22;11089;49.852;19.700;2024-02-26T16:19:20;12.40;1.00
21849;DHT22;11089;49.852;19.700;2024-02-26T16:22:22;12.20;1.00
21849;DHT22;11089;49.852;19.700;2024-02-26T16:25:24;12.10;1.00
21849;DHT22;11089;49.852;19.700;2024-02-26T16:28:25;11.90;1.00
21849;DHT22;11089;49.852;19.700;2024-02-26T16:31:26;11.90;1.00
21849;DHT22;11089;49.852;19.700;2024-02-26T16:34:29;11.80;1.00
21849;DHT22;11089;49.852;19.700;2024-02-26T16:37:31;11.80;1.00
21849;DHT22;11089;49.852;19.700;2024-02-26T16:40:32;11.70;1.00
21849;DHT22;11089;49.852;19.700;2024-02-26T16:43:33;11.60;1.00
21849;DHT22;11089;49.852;19.700;2024-02-26T16:46:36;11.50;1.00
21849;DHT22;11089;49.852;19.700;2024-02-26T16:49:37;11.40;1.00
21849;DHT22;11089;49.852;19.700;2024-02-26T16:52:38;11.30;11.90
21849;DHT22;11089;49.852;19.700;2024-02-26T16:55:39;11.30;71.70
21849;DHT22;11089;49.852;19.700;2024-02-26T16:58:39;11.30;72.20
21849;DHT22;11089;49.852;19.700;2024-02-26T17:01:47;11.30;36.80
21849;DHT22;11089;49.852;19.700;2024-02-26T17:04:48;11.20;57.50
21849;DHT22;11089;49.852;19.700;2024-02-26T17:07:49;11.20;99.90
21849;DHT22;11089;49.852;19.700;2024-02-26T17:10:50;11.10;99.90
21849;DHT22;11089;49.852;19.700;2024-02-26T17:13:51;11.10;99.90
21849;DHT22;11089;49.852;19.700;2024-02-26T17:16:52;11.00;99.90
21849;DHT22;11089;49.852;19.700;2024-02-26T17:19:53;11.00;99.90
21849;DHT22;11089;49.852;19.700;2024-02-26T17:22:53;11.20;99.90
21849;DHT22;11089;49.852;19.700;2024-02-26T17:25:54;11.30;99.90
21849;DHT22;11089;49.852;19.700;2024-02-26T17:28:56;11.20;99.90
21849;DHT22;11089;49.852;19.700;2024-02-26T17:31:57;11.30;99.90
21849;DHT22;11089;49.852;19.700;2024-02-26T17:34:59;11.30;99.90
21849;DHT22;11089;49.852;19.700;2024-02-26T17:38:00;11.30;99.90
21849;DHT22;11089;49.852;19.700;2024-02-26T17:41:01;11.40;99.90
21849;DHT22;11089;49.852;19.700;2024-02-26T17:44:02;11.30;99.90
21849;DHT22;11089;49.852;19.700;2024-02-26T17:47:03;11.30;99.90
21849;DHT22;11089;49.852;19.700;2024-02-26T17:50:05;11.40;99.90
21849;DHT22;11089;49.852;19.700;2024-02-26T17:53:05;11.40;99.90
21849;DHT22;11089;49.852;19.700;2024-02-26T17:56:07;11.30;99.90
21849;DHT22;11089;49.852;19.700;2024-02-26T17:59:07;11.30;99.90
21849;DHT22;11089;49.852;19.700;2024-02-26T18:02:08;11.20;99.90
21849;DHT22;11089;49.852;19.700;2024-02-26T18:05:09;11.20;99.90
21849;DHT22;11089;49.852;19.700;2024-02-26T18:08:11;11.20;99.90
21849;DHT22;11089;49.852;19.700;2024-02-26T18:11:12;11.20;99.90
21849;DHT22;11089;49.852;19.700;2024-02-26T18:14:13;11.10;99.90
21849;DHT22;11089;49.852;19.700;2024-02-26T18:17:14;11.10;99.90
21849;DHT22;11089;49.852;19.700;2024-02-26T18:20:15;11.00;99.90
21849;DHT22;11089;49.852;19.700;2024-02-26T18:23:16;10.90;99.90
21849;DHT22;11089;49.852;19.700;2024-02-26T18:26:17;11.00;99.90
21849;DHT22;11089;49.852;19.700;2024-02-26T18:29:22;10.90;99.90
21849;DHT22;11089;49.852;19.700;2024-02-26T18:32:23;10.90;99.90
21849;DHT22;11089;49.852;19.700;2024-02-26T18:35:25;10.90;1.00
21849;DHT22;11089;49.852;19.700;2024-02-26T18:38:26;10.80;1.00
21849;DHT22;11089;49.852;19.700;2024-02-26T18:41:27;10.90;99.90
21849;DHT22;11089;49.852;19.700;2024-02-26T18:44:27;10.80;99.90
21849;DHT22;11089;49.852;19.700;2024-02-26T18:47:28;10.90;99.90
21849;DHT22;11089;49.852;19.700;2024-02-26T18:50:29;10.80;99.90
21849;DHT22;11089;49.852;19.700;2024-02-26T18:53:30;10.60;99.90
21849;DHT22;11089;49.852;19.700;2024-02-26T18:56:31;10.40;99.90
21849;DHT22;11089;49.852;19.700;2024-02-26T18:59:32;10.50;1.00
21849;DHT22;11089;49.852;19.700;2024-02-26T19:02:33;10.40;1.00
21849;DHT22;11089;49.852;19.700;2024-02-26T19:05:34;10.50;1.00
21849;DHT22;11089;49.852;19.700;2024-02-26T19:08:35;10.40;1.00
21849;DHT22;11089;49.852;19.700;2024-02-26T19:11:47;10.40;1.00
21849;DHT22;11089;49.852;19.700;2024-02-26T19:14:49;10.40;1.00
21849;DHT22;11089;49.852;19.700;2024-02-26T19:17:50;10.30;1.00